createdAt,value
2017-10-06T00:00:17.156Z,1.48
2017-10-06T00:02:44.183Z,2.40
2017-10-06T00:05:10.868Z,2.17
2017-10-06T00:07:37.580Z,1.80
2017-10-06T00:10:04.561Z,1.77
2017-10-06T00:12:31.263Z,1.87
2017-10-06T00:14:57.951Z,2.15
2017-10-06T00:17:24.668Z,1.40
2017-10-06T00:19:51.360Z,1.30
2017-10-06T00:22:18.060Z,1.60
2017-10-06T00:24:44.980Z,1.40
2017-10-06T00:27:11.688Z,1.90
2017-10-06T00:29:38.375Z,1.30
2017-10-06T00:32:05.081Z,2.03
2017-10-06T00:34:31.760Z,1.98
2017-10-06T00:36:58.463Z,1.50
2017-10-06T00:39:25.652Z,1.75
2017-10-06T00:41:52.356Z,1.95
2017-10-06T00:44:19.044Z,1.80
2017-10-06T00:46:46.436Z,1.45
2017-10-06T00:49:13.123Z,1.60
2017-10-06T00:51:40.103Z,1.30
2017-10-06T00:54:07.021Z,1.75
2017-10-06T00:56:33.731Z,1.80
2017-10-06T00:59:00.760Z,1.35
2017-10-06T01:01:27.712Z,1.50
2017-10-06T01:03:54.396Z,1.40
2017-10-06T01:06:21.103Z,1.65
2017-10-06T01:08:47.784Z,2.12
2017-10-06T01:11:14.732Z,2.30
2017-10-06T01:13:41.424Z,1.60
2017-10-06T01:16:08.336Z,1.55
2017-10-06T01:18:35.363Z,1.60
2017-10-06T01:21:02.043Z,1.55
2017-10-06T01:23:29.147Z,1.85
2017-10-06T01:25:55.828Z,1.90
2017-10-06T01:28:22.773Z,2.30
2017-10-06T01:30:49.864Z,1.45
2017-10-06T01:33:16.812Z,1.42
2017-10-06T01:35:43.507Z,1.87
2017-10-06T01:38:10.207Z,1.40
2017-10-06T01:40:36.894Z,1.90
2017-10-06T01:43:03.603Z,1.37
2017-10-06T01:45:30.295Z,2.28
2017-10-06T01:47:56.999Z,1.62
2017-10-06T01:50:24.429Z,1.50
2017-10-06T01:52:51.140Z,1.75
2017-10-06T01:55:18.206Z,1.45
2017-10-06T01:57:44.908Z,1.45
2017-10-06T02:00:11.893Z,1.40
2017-10-06T02:02:38.597Z,1.35
2017-10-06T02:05:05.300Z,1.45
2017-10-06T02:07:32.311Z,2.25
2017-10-06T02:09:59.227Z,1.87
2017-10-06T02:12:25.931Z,1.83
2017-10-06T02:14:52.613Z,1.92
2017-10-06T02:17:19.312Z,1.83
2017-10-06T02:19:46.382Z,1.55
2017-10-06T02:22:13.319Z,1.45
2017-10-06T02:24:40.003Z,1.15
2017-10-06T02:27:07.391Z,1.45
2017-10-06T02:29:34.072Z,1.50
2017-10-06T02:32:00.764Z,1.42
2017-10-06T02:34:27.472Z,1.58
2017-10-06T02:36:54.156Z,1.70
2017-10-06T02:39:21.104Z,2.70
2017-10-06T02:41:47.792Z,1.23
2017-10-06T02:44:14.508Z,1.60
2017-10-06T02:46:41.204Z,1.80
2017-10-06T02:49:07.904Z,1.42
2017-10-06T02:51:34.587Z,1.60
2017-10-06T02:54:01.292Z,1.42
2017-10-06T02:56:27.988Z,1.20
2017-10-06T02:58:54.695Z,1.90
2017-10-06T03:01:21.721Z,1.23
2017-10-06T03:03:48.444Z,1.33
2017-10-06T03:06:15.479Z,2.20
2017-10-06T03:08:42.194Z,1.30
2017-10-06T03:11:08.877Z,1.60
2017-10-06T03:13:35.577Z,1.42
2017-10-06T03:16:02.564Z,1.48
2017-10-06T03:18:29.522Z,1.55
2017-10-06T03:20:56.217Z,1.40
2017-10-06T03:23:22.941Z,2.03
2017-10-06T03:25:49.857Z,2.20
2017-10-06T03:28:16.560Z,1.92
2017-10-06T03:30:43.536Z,2.33
2017-10-06T03:33:10.548Z,1.62
2017-10-06T03:35:37.227Z,2.80
2017-10-06T03:38:03.935Z,2.08
2017-10-06T03:40:30.620Z,2.37
2017-10-06T03:42:57.300Z,2.62
2017-10-06T03:45:24.016Z,1.83
2017-10-06T03:47:50.695Z,2.03
2017-10-06T03:50:17.603Z,1.90
2017-10-06T03:52:44.587Z,2.60
2017-10-06T03:55:11.688Z,2.20
2017-10-06T03:57:38.611Z,1.90
2017-10-06T04:00:05.568Z,1.58
2017-10-06T04:02:32.252Z,2.10
2017-10-06T04:04:59.180Z,1.65
2017-10-06T04:07:25.900Z,1.83
2017-10-06T04:09:52.589Z,1.85
2017-10-06T04:12:19.267Z,2.58
2017-10-06T04:14:45.972Z,2.70
2017-10-06T04:17:12.992Z,1.60
2017-10-06T04:19:39.978Z,2.12
2017-10-06T04:22:06.696Z,2.17
2017-10-06T04:24:33.381Z,2.12
2017-10-06T04:27:00.083Z,2.00
2017-10-06T04:29:26.791Z,1.92
2017-10-06T04:31:53.472Z,1.92
2017-10-06T04:34:20.439Z,3.42
2017-10-06T04:36:47.148Z,1.90
2017-10-06T04:39:14.391Z,2.60
2017-10-06T04:41:41.085Z,3.22
2017-10-06T04:44:07.803Z,1.60
2017-10-06T04:46:34.539Z,1.55
2017-10-06T04:49:01.236Z,1.60
2017-10-06T04:51:27.952Z,1.60
2017-10-06T04:53:54.864Z,2.15
2017-10-06T04:56:21.540Z,2.17
2017-10-06T04:58:48.500Z,1.70
2017-10-06T05:01:15.183Z,2.12
2017-10-06T05:03:41.860Z,2.50
2017-10-06T05:06:08.571Z,1.62
2017-10-06T05:08:35.255Z,1.70
2017-10-06T05:11:01.936Z,2.10
2017-10-06T05:13:28.643Z,1.83
2017-10-06T05:15:55.558Z,1.75
2017-10-06T05:18:22.240Z,1.85
2017-10-06T05:20:53.941Z,1.67
2017-10-06T05:23:20.644Z,1.48
2017-10-06T05:25:47.331Z,2.00
2017-10-06T05:28:14.403Z,1.85
2017-10-06T05:30:41.092Z,2.08
2017-10-06T05:33:08.048Z,1.92
2017-10-06T05:35:35.467Z,1.42
2017-10-06T05:38:02.148Z,1.65
2017-10-06T05:40:29.197Z,2.17
2017-10-06T05:42:56.135Z,1.85
2017-10-06T05:45:23.224Z,2.65
2017-10-06T05:47:50.808Z,1.55
2017-10-06T05:50:17.764Z,1.92
2017-10-06T05:52:44.760Z,1.40
2017-10-06T05:55:11.661Z,1.92
2017-10-06T05:57:38.717Z,1.37
2017-10-06T06:00:05.408Z,2.15
2017-10-06T06:02:32.400Z,2.47
2017-10-06T06:04:59.552Z,2.20
2017-10-06T06:07:26.488Z,1.33
2017-10-06T06:09:53.180Z,2.00
2017-10-06T06:12:20.751Z,2.42
2017-10-06T06:14:48.212Z,1.60
2017-10-06T06:17:15.200Z,1.73
2017-10-06T06:19:43.088Z,1.92
2017-10-06T06:22:10.102Z,1.70
2017-10-06T06:24:37.178Z,1.80
2017-10-06T06:27:04.120Z,1.90
2017-10-06T06:29:31.128Z,2.15
2017-10-06T06:31:58.168Z,1.25
2017-10-06T06:34:24.889Z,1.55
2017-10-06T06:36:51.919Z,1.95
2017-10-06T06:39:18.849Z,1.55
2017-10-06T06:41:45.563Z,2.28
2017-10-06T06:44:12.264Z,1.65
2017-10-06T06:46:38.963Z,2.00
2017-10-06T06:49:06.464Z,1.80
2017-10-06T06:51:33.153Z,1.92
2017-10-06T06:54:00.264Z,1.52
2017-10-06T06:56:27.352Z,1.55
2017-10-06T06:58:54.383Z,1.40
2017-10-06T07:01:21.306Z,1.83
2017-10-06T07:03:48.266Z,2.00
2017-10-06T07:06:15.254Z,1.90
2017-10-06T07:08:41.956Z,1.83
2017-10-06T07:11:08.673Z,1.48
2017-10-06T07:13:35.364Z,1.20
2017-10-06T07:16:02.047Z,1.37
2017-10-06T07:18:28.776Z,1.77
2017-10-06T07:20:55.806Z,1.60
2017-10-06T07:23:22.487Z,1.85
2017-10-06T07:25:49.224Z,2.50
2017-10-06T07:28:15.899Z,1.87
2017-10-06T07:30:42.927Z,1.70
2017-10-06T07:33:13.057Z,1.87
2017-10-06T07:35:39.735Z,2.37
2017-10-06T07:38:06.671Z,1.90
2017-10-06T07:40:33.384Z,1.50
2017-10-06T07:43:00.076Z,2.17
2017-10-06T07:45:27.021Z,1.73
2017-10-06T07:47:54.076Z,2.12
2017-10-06T07:50:21.024Z,1.37
2017-10-06T07:52:48.391Z,1.80
2017-10-06T07:55:18.656Z,1.80
2017-10-06T07:57:45.344Z,2.17
2017-10-06T08:00:12.324Z,1.73
2017-10-06T08:02:39.356Z,1.40
2017-10-06T08:05:07.733Z,2.10
2017-10-06T08:07:34.419Z,1.75
2017-10-06T08:10:01.139Z,1.87
2017-10-06T08:12:27.828Z,1.25
2017-10-06T08:14:54.837Z,1.40
2017-10-06T08:17:22.336Z,2.20
2017-10-06T08:19:49.330Z,1.52
2017-10-06T08:22:16.019Z,1.50
2017-10-06T08:24:42.996Z,1.70
2017-10-06T08:27:09.675Z,1.67
2017-10-06T08:29:36.618Z,1.25
2017-10-06T08:32:03.728Z,2.03
2017-10-06T08:34:30.652Z,2.20
2017-10-06T08:36:58.437Z,1.83
2017-10-06T08:39:25.156Z,1.80
2017-10-06T08:41:52.179Z,2.28
2017-10-06T08:44:19.621Z,2.20
2017-10-06T08:46:46.648Z,1.85
2017-10-06T08:49:13.644Z,1.60
2017-10-06T08:51:40.592Z,1.70
2017-10-06T08:56:38.275Z,1.40
2017-10-06T08:59:05.260Z,2.00
2017-10-06T09:01:33.829Z,2.00
2017-10-06T09:04:00.548Z,1.55
2017-10-06T09:06:27.264Z,2.35
2017-10-06T09:08:53.984Z,1.87
2017-10-06T09:11:21.451Z,1.58
2017-10-06T09:13:48.200Z,1.60
2017-10-06T09:16:15.353Z,1.95
2017-10-06T09:18:42.808Z,2.37
2017-10-06T09:21:09.515Z,1.95
2017-10-06T09:23:36.473Z,1.90
2017-10-06T09:28:35.658Z,1.85
2017-10-06T09:31:02.420Z,1.95
2017-10-06T09:33:29.730Z,2.75
2017-10-06T09:35:56.786Z,2.37
2017-10-06T09:38:23.809Z,2.67
2017-10-06T09:40:50.858Z,1.80
2017-10-06T09:43:17.974Z,1.50
2017-10-06T09:45:45.013Z,2.85
2017-10-06T09:48:12.045Z,3.08
2017-10-06T09:50:38.988Z,1.62
2017-10-06T09:53:06.069Z,1.70
2017-10-06T09:55:33.033Z,1.80
2017-10-06T09:57:59.727Z,1.67
2017-10-06T10:00:26.785Z,2.05
2017-10-06T10:02:54.204Z,1.62
2017-10-06T10:05:21.132Z,1.60
2017-10-06T10:07:47.844Z,1.65
2017-10-06T10:10:14.587Z,1.20
2017-10-06T10:12:42.028Z,1.33
2017-10-06T10:15:08.988Z,1.60
2017-10-06T10:17:35.976Z,1.48
2017-10-06T10:20:02.719Z,1.65
2017-10-06T10:22:29.688Z,1.30
2017-10-06T10:24:56.388Z,1.35
2017-10-06T10:27:23.484Z,1.20
2017-10-06T10:29:50.441Z,1.15
2017-10-06T10:32:17.861Z,1.40
2017-10-06T10:34:45.428Z,1.50
2017-10-06T10:37:12.148Z,1.30
2017-10-06T10:39:39.609Z,1.23
2017-10-06T10:42:06.677Z,2.45
2017-10-06T10:44:33.391Z,0.90
2017-10-06T10:47:00.880Z,1.25
2017-10-06T10:49:27.576Z,1.10
2017-10-06T10:51:54.592Z,1.10
2017-10-06T10:54:21.279Z,1.52
2017-10-06T10:56:48.203Z,1.10
2017-10-06T10:59:14.921Z,1.80
2017-10-06T11:01:42.321Z,1.00
2017-10-06T11:04:09.026Z,0.80
2017-10-06T11:06:36.017Z,1.30
2017-10-06T11:09:02.703Z,1.35
2017-10-06T11:11:29.745Z,0.90
2017-10-06T11:13:56.808Z,1.00
2017-10-06T11:16:23.929Z,1.40
2017-10-06T11:18:50.620Z,1.40
2017-10-06T11:21:17.586Z,1.10
2017-10-06T11:23:44.619Z,1.27
2017-10-06T11:26:11.312Z,1.30
2017-10-06T11:28:38.032Z,0.93
2017-10-06T11:31:04.993Z,1.10
2017-10-06T11:33:31.997Z,3.15
2017-10-06T11:35:59.126Z,1.10
2017-10-06T11:38:25.822Z,1.20
2017-10-06T11:40:52.849Z,1.15
2017-10-06T11:43:19.820Z,1.40
2017-10-06T11:45:46.811Z,1.15
2017-10-06T11:48:14.188Z,1.45
2017-10-06T11:50:40.899Z,1.08
2017-10-06T11:53:07.596Z,1.23
2017-10-06T11:55:34.648Z,1.27
2017-10-06T11:58:02.355Z,1.02
2017-10-06T12:00:29.276Z,1.17
2017-10-06T12:02:55.960Z,1.10
2017-10-06T12:05:22.673Z,1.20
2017-10-06T12:07:49.356Z,3.15
2017-10-06T12:10:16.056Z,2.85
2017-10-06T12:12:43.029Z,1.83
2017-10-06T12:15:09.712Z,1.08
2017-10-06T12:17:36.720Z,5.85
2017-10-06T12:20:03.787Z,1.23
2017-10-06T12:22:31.126Z,1.30
2017-10-06T12:24:57.836Z,1.02
2017-10-06T12:27:24.539Z,1.05
2017-10-06T12:29:51.530Z,0.98
2017-10-06T12:32:18.496Z,0.90
2017-10-06T12:34:45.440Z,0.98
2017-10-06T12:37:12.361Z,1.30
2017-10-06T12:39:39.064Z,0.90
2017-10-06T12:42:06.017Z,0.90
2017-10-06T12:44:32.976Z,0.90
2017-10-06T12:47:00.012Z,1.30
2017-10-06T12:49:27.064Z,1.05
2017-10-06T12:51:54.049Z,1.20
2017-10-06T12:54:21.443Z,2.87
2017-10-06T12:56:48.542Z,1.40
2017-10-06T12:59:15.230Z,1.50
2017-10-06T13:01:42.328Z,1.40
2017-10-06T13:04:09.417Z,1.02
2017-10-06T13:06:36.922Z,1.10
2017-10-06T13:09:03.893Z,1.50
2017-10-06T13:11:30.937Z,1.27
2017-10-06T13:13:57.940Z,1.20
2017-10-06T13:16:25.007Z,1.30
2017-10-06T13:18:51.964Z,1.30
2017-10-06T13:21:18.905Z,1.12
2017-10-06T13:23:45.596Z,1.55
2017-10-06T13:26:12.538Z,1.20
2017-10-06T13:28:39.237Z,1.45
2017-10-06T13:31:06.243Z,1.17
2017-10-06T13:33:33.356Z,1.30
2017-10-06T13:36:00.275Z,1.42
2017-10-06T13:38:27.312Z,1.50
2017-10-06T13:40:54.412Z,1.60
2017-10-06T13:43:21.332Z,1.55
2017-10-06T13:45:48.387Z,1.80
2017-10-06T13:48:15.404Z,1.15
2017-10-06T13:50:42.458Z,1.50
2017-10-06T13:53:09.143Z,1.00
2017-10-06T13:55:35.855Z,0.85
2017-10-06T13:58:02.548Z,0.90
2017-10-06T14:00:29.247Z,0.80
2017-10-06T14:02:55.961Z,1.20
2017-10-06T14:05:23.044Z,1.00
2017-10-06T14:07:50.188Z,1.30
2017-10-06T14:10:17.176Z,0.90
2017-10-06T14:12:43.874Z,1.00
2017-10-06T14:15:10.593Z,0.70
2017-10-06T14:17:37.324Z,0.98
2017-10-06T14:20:04.709Z,0.80
2017-10-06T14:22:31.947Z,0.80
2017-10-06T14:24:58.683Z,1.08
2017-10-06T14:27:25.696Z,1.10
2017-10-06T14:29:52.391Z,1.10
2017-10-06T14:32:19.119Z,1.73
2017-10-06T14:34:46.168Z,1.40
2017-10-06T14:37:12.902Z,1.55
2017-10-06T14:39:40.300Z,1.70
2017-10-06T14:42:07.119Z,1.85
2017-10-06T14:44:34.200Z,1.60
2017-10-06T14:47:01.160Z,1.70
2017-10-06T14:49:28.172Z,1.50
2017-10-06T14:51:55.201Z,1.30
2017-10-06T14:54:22.240Z,1.55
2017-10-06T14:56:48.944Z,2.10
2017-10-06T14:59:15.868Z,2.20
2017-10-06T15:01:42.938Z,1.25
2017-10-06T15:04:09.893Z,2.05
2017-10-06T15:06:36.588Z,1.73
2017-10-06T15:09:04.004Z,1.40
2017-10-06T15:11:30.688Z,1.80
2017-10-06T15:16:29.375Z,2.00
2017-10-06T15:18:56.411Z,1.65
2017-10-06T15:21:23.112Z,1.50
2017-10-06T15:23:49.836Z,2.17
2017-10-06T15:26:16.780Z,2.30
2017-10-06T15:28:43.692Z,2.10
2017-10-06T15:31:13.792Z,2.30
2017-10-06T15:33:41.245Z,1.77
2017-10-06T15:36:08.215Z,1.42
2017-10-06T15:38:34.940Z,2.28
2017-10-06T15:41:01.759Z,1.70
2017-10-06T15:43:28.446Z,2.00
2017-10-06T15:45:55.176Z,1.23
2017-10-06T15:48:21.872Z,2.55
2017-10-06T15:50:48.568Z,1.70
2017-10-06T15:53:16.123Z,1.60
2017-10-06T15:55:43.121Z,2.28
2017-10-06T15:58:10.121Z,2.47
2017-10-06T16:00:37.573Z,1.65
2017-10-06T16:03:04.546Z,1.67
2017-10-06T16:05:31.472Z,1.67
2017-10-06T16:07:58.552Z,1.10
2017-10-06T16:10:25.581Z,2.10
2017-10-06T16:12:52.508Z,1.70
2017-10-06T16:15:19.567Z,1.20
2017-10-06T16:17:46.268Z,1.12
2017-10-06T16:20:13.265Z,1.90
2017-10-06T16:22:40.304Z,1.50
2017-10-06T16:25:07.260Z,1.60
2017-10-06T16:27:34.180Z,2.20
2017-10-06T16:30:01.300Z,1.73
2017-10-06T16:32:28.332Z,1.50
2017-10-06T16:34:55.264Z,2.22
2017-10-06T16:37:22.357Z,1.30
2017-10-06T16:39:49.346Z,1.30
2017-10-06T16:42:16.348Z,0.98
2017-10-06T16:44:43.119Z,1.73
2017-10-06T16:47:09.813Z,1.05
2017-10-06T16:49:36.796Z,1.30
2017-10-06T16:52:03.940Z,1.62
2017-10-06T16:54:31.289Z,1.60
2017-10-06T16:56:58.214Z,1.73
2017-10-06T16:59:25.307Z,1.30
2017-10-06T17:01:52.363Z,1.80
2017-10-06T17:04:19.537Z,1.85
2017-10-06T17:06:49.928Z,1.90
2017-10-06T17:09:17.593Z,1.70
2017-10-06T17:11:46.464Z,2.08
2017-10-06T17:14:15.572Z,2.17
2017-10-06T17:16:44.428Z,1.95
2017-10-06T17:19:11.536Z,2.08
2017-10-06T17:24:15.052Z,2.33
2017-10-06T17:29:16.468Z,1.95
2017-10-06T17:31:43.553Z,2.85
2017-10-06T17:37:26.792Z,1.70
2017-10-06T17:39:55.224Z,2.10
2017-10-06T17:42:22.276Z,2.72
2017-10-06T17:44:50.866Z,1.80
2017-10-06T17:47:21.071Z,2.05
2017-10-06T17:49:47.899Z,2.20
2017-10-06T17:52:17.472Z,1.75
2017-10-06T17:57:17.970Z,2.65
2017-10-06T17:59:49.466Z,1.67
2017-10-06T18:02:16.491Z,2.10
2017-10-06T18:04:47.628Z,1.80
2017-10-06T18:07:17.238Z,1.55
2017-10-06T18:09:49.584Z,1.50
2017-10-06T18:12:18.545Z,1.85
2017-10-06T18:14:47.804Z,1.77
2017-10-06T18:17:16.017Z,1.50
2017-10-06T18:19:43.608Z,2.00
2017-10-06T18:22:11.875Z,1.87
2017-10-06T18:24:38.980Z,2.00
2017-10-06T18:27:06.014Z,2.50
2017-10-06T18:29:34.108Z,2.35
2017-10-06T18:34:35.069Z,3.40
2017-10-06T18:37:02.138Z,2.65
2017-10-06T18:39:34.668Z,3.03
2017-10-06T18:42:01.854Z,2.60
2017-10-06T18:44:28.972Z,2.67
2017-10-06T18:46:58.312Z,2.40
2017-10-06T18:49:25.334Z,3.12
2017-10-06T18:51:52.957Z,3.87
2017-10-06T18:54:21.332Z,2.35
2017-10-06T18:56:48.095Z,3.22
2017-10-06T18:59:19.024Z,3.05
2017-10-06T19:01:47.476Z,2.70
2017-10-06T19:04:15.873Z,3.10
2017-10-06T19:06:43.965Z,3.00
2017-10-06T19:09:10.712Z,3.33
2017-10-06T19:11:40.206Z,2.92
2017-10-06T19:14:07.156Z,3.80
2017-10-06T19:16:35.323Z,3.20
2017-10-06T19:19:03.752Z,2.60
2017-10-06T19:21:30.906Z,3.08
2017-10-06T19:23:59.784Z,3.12
2017-10-06T19:26:26.525Z,3.30
2017-10-06T19:28:54.029Z,2.90
2017-10-06T19:31:22.528Z,2.95
2017-10-06T19:33:50.872Z,3.08
2017-10-06T19:36:17.769Z,3.70
2017-10-06T19:38:45.800Z,2.83
2017-10-06T19:41:13.484Z,2.85
2017-10-06T19:43:42.335Z,3.25
2017-10-06T19:46:09.889Z,3.37
2017-10-06T19:48:37.547Z,2.85
2017-10-06T19:51:05.112Z,2.80
2017-10-06T19:53:33.083Z,3.87
2017-10-06T19:56:01.169Z,3.00
2017-10-06T19:58:29.637Z,3.12
2017-10-06T20:00:57.614Z,3.20
2017-10-06T20:03:26.999Z,3.22
2017-10-06T20:05:55.518Z,3.42
2017-10-06T20:08:23.524Z,3.40
2017-10-06T20:10:51.876Z,3.53
2017-10-06T20:13:22.668Z,3.85
2017-10-06T20:15:49.996Z,4.57
2017-10-06T20:18:17.412Z,3.90
2017-10-06T20:20:46.224Z,3.67
2017-10-06T20:23:21.930Z,3.00
2017-10-06T20:25:51.981Z,3.80
2017-10-06T20:28:19.624Z,3.22
2017-10-06T20:30:47.080Z,3.50
2017-10-06T20:33:15.105Z,3.60
2017-10-06T20:35:42.739Z,3.40
2017-10-06T20:38:13.229Z,4.05
2017-10-06T20:40:48.727Z,2.90
2017-10-06T20:43:17.144Z,3.33
2017-10-06T20:45:52.964Z,3.55
2017-10-06T20:48:21.501Z,2.95
2017-10-06T20:50:51.437Z,3.58
2017-10-06T20:53:20.214Z,3.03
2017-10-06T20:55:48.064Z,3.20
2017-10-06T20:58:16.801Z,5.10
2017-10-06T21:00:46.540Z,3.58
2017-10-06T21:03:14.990Z,3.78
2017-10-06T21:05:48.809Z,4.72
2017-10-06T21:08:17.888Z,4.00
2017-10-06T21:10:46.561Z,3.72
2017-10-06T21:15:53.297Z,3.65
2017-10-06T21:18:22.230Z,3.87
2017-10-06T21:20:51.338Z,4.43
2017-10-06T21:23:21.992Z,3.75
2017-10-06T21:25:49.172Z,3.80
2017-10-06T21:28:22.870Z,3.50
2017-10-06T21:30:52.893Z,3.85
2017-10-06T21:35:53.482Z,3.62
2017-10-06T21:38:33.118Z,3.60
2017-10-06T21:41:13.298Z,4.30
2017-10-06T21:43:46.876Z,3.58
2017-10-06T21:46:16.578Z,3.50
2017-10-06T21:48:46.680Z,4.25
2017-10-06T21:51:16.520Z,4.00
2017-10-06T21:53:46.449Z,5.35
2017-10-06T21:56:15.172Z,3.28
2017-10-06T21:58:46.993Z,4.65
2017-10-06T22:01:16.039Z,4.53
2017-10-06T22:03:52.557Z,4.50
2017-10-06T22:06:26.846Z,4.47
2017-10-06T22:08:56.580Z,4.12
2017-10-06T22:11:28.371Z,4.90
2017-10-06T22:14:03.851Z,3.67
2017-10-06T22:21:52.419Z,4.43
2017-10-06T22:24:20.907Z,4.93
2017-10-06T22:26:53.654Z,4.95
2017-10-06T22:29:24.946Z,4.37
2017-10-06T22:31:57.084Z,6.72
2017-10-06T22:34:26.532Z,6.20
2017-10-06T22:36:54.599Z,5.37
2017-10-06T22:39:24.849Z,5.90
2017-10-06T22:41:54.999Z,5.40
2017-10-06T22:44:22.860Z,5.45
2017-10-06T22:49:26.200Z,4.75
2017-10-06T22:52:02.883Z,5.95
2017-10-06T22:54:29.953Z,6.25
2017-10-06T22:56:58.705Z,5.28
2017-10-06T22:59:27.510Z,5.87
2017-10-06T23:01:56.176Z,5.35
2017-10-06T23:04:23.211Z,5.90
2017-10-06T23:06:51.647Z,5.15
2017-10-06T23:09:19.187Z,5.50
2017-10-06T23:11:46.307Z,5.80
2017-10-06T23:14:13.910Z,5.78
2017-10-06T23:16:42.527Z,6.00
2017-10-06T23:19:09.512Z,5.30
2017-10-06T23:21:36.952Z,6.40
2017-10-06T23:24:05.419Z,6.40
2017-10-06T23:26:32.432Z,6.35
2017-10-06T23:29:01.241Z,5.03
2017-10-06T23:36:36.596Z,6.57
2017-10-06T23:39:05.816Z,5.15
2017-10-06T23:41:34.145Z,5.50
2017-10-06T23:44:01.687Z,5.90
2017-10-06T23:49:09.993Z,5.90
2017-10-06T23:51:37.599Z,5.20
2017-10-06T23:54:10.131Z,5.80
2017-10-06T23:56:40.261Z,5.55
